Terminal Aerodrome Forecast
Issued by NWS Cleveland, OH

Home | Current Version | Previous Version | Text Only | Print | Product List | Glossary Off
Versions: 1 2 3 4 5 6 7 8 9 10 11 12 13 14 15 16 17 18 19 20 21 22 23 24

531
FTUS41 KCLE 150936 AAA
TAFCAK
TAF AMD
KCAK 150936Z 1510/1606 24009KT P6SM BKN020
     FM152100 23011KT 2SM -RA OVC007
     FM160300 24010KT 1 1/2SM -RA BR OVC003=

USA.gov is the U.S. government's official web portal to all federal, state and local government web resources and services.